sensor_id;sensor_type;location;lat;lon;timestamp;P1;durP1;ratioP1;P2;durP2;ratioP2
10090;SDS011;5084;51.386;6.778;2022-11-18T00:00:31;3.50;;;2.43;;
10090;SDS011;5084;51.386;6.778;2022-11-18T00:02:57;2.63;;;2.27;;
10090;SDS011;5084;51.386;6.778;2022-11-18T00:05:23;2.47;;;2.10;;
10090;SDS011;5084;51.386;6.778;2022-11-18T00:07:58;2.27;;;2.00;;
10090;SDS011;5084;51.386;6.778;2022-11-18T00:10:24;4.30;;;2.37;;
10090;SDS011;5084;51.386;6.778;2022-11-18T00:12:50;2.57;;;2.23;;
10090;SDS011;5084;51.386;6.778;2022-11-18T00:15:35;3.33;;;2.10;;
10090;SDS011;5084;51.386;6.778;2022-11-18T00:18:01;3.13;;;1.80;;
10090;SDS011;5084;51.386;6.778;2022-11-18T00:20:27;5.20;;;2.23;;
10090;SDS011;5084;51.386;6.778;2022-11-18T00:22:53;2.40;;;2.10;;
10090;SDS011;5084;51.386;6.778;2022-11-18T00:25:22;2.57;;;2.03;;
10090;SDS011;5084;51.386;6.778;2022-11-18T00:27:48;3.20;;;2.20;;
10090;SDS011;5084;51.386;6.778;2022-11-18T00:30:14;2.73;;;2.20;;
10090;SDS011;5084;51.386;6.778;2022-11-18T00:32:40;5.80;;;2.67;;
10090;SDS011;5084;51.386;6.778;2022-11-18T00:35:07;3.90;;;2.27;;
10090;SDS011;5084;51.386;6.778;2022-11-18T00:37:33;2.73;;;2.43;;
10090;SDS011;5084;51.386;6.778;2022-11-18T00:39:59;3.57;;;2.17;;
10090;SDS011;5084;51.386;6.778;2022-11-18T00:42:25;3.27;;;2.57;;
10090;SDS011;5084;51.386;6.778;2022-11-18T00:45:10;3.60;;;2.03;;
10090;SDS011;5084;51.386;6.778;2022-11-18T00:47:36;2.90;;;2.00;;
10090;SDS011;5084;51.386;6.778;2022-11-18T00:50:02;2.57;;;1.90;;
10090;SDS011;5084;51.386;6.778;2022-11-18T00:52:31;2.83;;;2.37;;
10090;SDS011;5084;51.386;6.778;2022-11-18T00:54:57;4.27;;;2.47;;
10090;SDS011;5084;51.386;6.778;2022-11-18T00:57:30;2.63;;;1.97;;
10090;SDS011;5084;51.386;6.778;2022-11-18T00:59:56;3.57;;;2.33;;
10090;SDS011;5084;51.386;6.778;2022-11-18T01:02:22;4.03;;;2.00;;
10090;SDS011;5084;51.386;6.778;2022-11-18T01:04:48;3.07;;;2.37;;
10090;SDS011;5084;51.386;6.778;2022-11-18T01:07:14;3.43;;;2.03;;
10090;SDS011;5084;51.386;6.778;2022-11-18T01:09:40;3.20;;;2.10;;
10090;SDS011;5084;51.386;6.778;2022-11-18T01:12:08;4.87;;;1.93;;
10090;SDS011;5084;51.386;6.778;2022-11-18T01:14:52;5.13;;;2.60;;
10090;SDS011;5084;51.386;6.778;2022-11-18T01:17:18;2.57;;;2.10;;
10090;SDS011;5084;51.386;6.778;2022-11-18T01:19:44;4.07;;;2.20;;
10090;SDS011;5084;51.386;6.778;2022-11-18T01:22:11;3.03;;;2.00;;
10090;SDS011;5084;51.386;6.778;2022-11-18T01:24:37;3.33;;;2.20;;
10090;SDS011;5084;51.386;6.778;2022-11-18T01:27:09;3.57;;;2.03;;
10090;SDS011;5084;51.386;6.778;2022-11-18T01:29:35;2.47;;;2.23;;
10090;SDS011;5084;51.386;6.778;2022-11-18T01:32:01;2.20;;;1.77;;
10090;SDS011;5084;51.386;6.778;2022-11-18T01:34:30;4.57;;;2.27;;
10090;SDS011;5084;51.386;6.778;2022-11-18T01:36:56;4.20;;;2.07;;
10090;SDS011;5084;51.386;6.778;2022-11-18T01:39:22;3.13;;;2.30;;
10090;SDS011;5084;51.386;6.778;2022-11-18T01:41:48;2.43;;;1.80;;
10090;SDS011;5084;51.386;6.778;2022-11-18T01:46:59;3.53;;;2.27;;
10090;SDS011;5084;51.386;6.778;2022-11-18T01:49:25;3.60;;;2.40;;
10090;SDS011;5084;51.386;6.778;2022-11-18T01:52:03;2.30;;;2.10;;
10090;SDS011;5084;51.386;6.778;2022-11-18T01:54:33;2.67;;;1.93;;
10090;SDS011;5084;51.386;6.778;2022-11-18T01:57:01;1.87;;;1.70;;
10090;SDS011;5084;51.386;6.778;2022-11-18T01:59:29;2.10;;;1.90;;
10090;SDS011;5084;51.386;6.778;2022-11-18T02:01:56;2.73;;;1.80;;
10090;SDS011;5084;51.386;6.778;2022-11-18T02:04:23;4.53;;;2.77;;
10090;SDS011;5084;51.386;6.778;2022-11-18T02:06:50;5.33;;;2.07;;
10090;SDS011;5084;51.386;6.778;2022-11-18T02:09:18;2.53;;;1.80;;
10090;SDS011;5084;51.386;6.778;2022-11-18T02:11:45;2.83;;;1.60;;
10090;SDS011;5084;51.386;6.778;2022-11-18T02:14:16;3.33;;;2.30;;
10090;SDS011;5084;51.386;6.778;2022-11-18T02:24:35;2.23;;;1.70;;
10090;SDS011;5084;51.386;6.778;2022-11-18T02:29:54;2.63;;;2.00;;
10090;SDS011;5084;51.386;6.778;2022-11-18T02:32:33;3.53;;;1.90;;
10090;SDS011;5084;51.386;6.778;2022-11-18T02:35:05;2.50;;;2.00;;
10090;SDS011;5084;51.386;6.778;2022-11-18T02:37:35;3.30;;;2.23;;
10090;SDS011;5084;51.386;6.778;2022-11-18T02:40:06;2.03;;;1.83;;
10090;SDS011;5084;51.386;6.778;2022-11-18T02:42:33;2.23;;;1.70;;
10090;SDS011;5084;51.386;6.778;2022-11-18T02:45:02;2.97;;;2.03;;
10090;SDS011;5084;51.386;6.778;2022-11-18T02:47:30;3.07;;;2.47;;
10090;SDS011;5084;51.386;6.778;2022-11-18T02:49:58;5.07;;;2.27;;
10090;SDS011;5084;51.386;6.778;2022-11-18T02:52:26;2.23;;;1.87;;
10090;SDS011;5084;51.386;6.778;2022-11-18T02:54:52;2.70;;;2.00;;
10090;SDS011;5084;51.386;6.778;2022-11-18T02:57:19;4.10;;;1.87;;
10090;SDS011;5084;51.386;6.778;2022-11-18T02:59:46;3.03;;;1.97;;
10090;SDS011;5084;51.386;6.778;2022-11-18T03:02:16;1.60;;;1.50;;
10090;SDS011;5084;51.386;6.778;2022-11-18T03:04:42;4.67;;;2.50;;
10090;SDS011;5084;51.386;6.778;2022-11-18T03:07:14;2.83;;;1.77;;
10090;SDS011;5084;51.386;6.778;2022-11-18T03:09:44;2.07;;;1.90;;
10090;SDS011;5084;51.386;6.778;2022-11-18T03:15:06;5.70;;;2.43;;
10090;SDS011;5084;51.386;6.778;2022-11-18T03:20:25;3.83;;;1.60;;
10090;SDS011;5084;51.386;6.778;2022-11-18T03:22:53;1.60;;;1.50;;
10090;SDS011;5084;51.386;6.778;2022-11-18T03:25:28;3.17;;;2.00;;
10090;SDS011;5084;51.386;6.778;2022-11-18T03:28:05;2.63;;;1.63;;
10090;SDS011;5084;51.386;6.778;2022-11-18T03:30:32;3.07;;;2.30;;
10090;SDS011;5084;51.386;6.778;2022-11-18T03:33:09;2.70;;;1.80;;
10090;SDS011;5084;51.386;6.778;2022-11-18T03:35:37;1.93;;;1.70;;
10090;SDS011;5084;51.386;6.778;2022-11-18T03:38:06;1.73;;;1.53;;
10090;SDS011;5084;51.386;6.778;2022-11-18T03:40:34;3.07;;;2.00;;
10090;SDS011;5084;51.386;6.778;2022-11-18T03:43:05;2.27;;;1.87;;
10090;SDS011;5084;51.386;6.778;2022-11-18T03:45:36;5.33;;;2.17;;
10090;SDS011;5084;51.386;6.778;2022-11-18T03:50:38;4.83;;;2.57;;
10090;SDS011;5084;51.386;6.778;2022-11-18T03:53:06;3.57;;;2.10;;
10090;SDS011;5084;51.386;6.778;2022-11-18T03:55:34;2.50;;;2.00;;
10090;SDS011;5084;51.386;6.778;2022-11-18T03:58:12;3.07;;;1.73;;
10090;SDS011;5084;51.386;6.778;2022-11-18T04:00:41;3.37;;;2.13;;
10090;SDS011;5084;51.386;6.778;2022-11-18T04:03:08;3.00;;;2.20;;
10090;SDS011;5084;51.386;6.778;2022-11-18T04:05:35;2.20;;;1.90;;
10090;SDS011;5084;51.386;6.778;2022-11-18T04:08:04;3.10;;;1.93;;
10090;SDS011;5084;51.386;6.778;2022-11-18T04:13:05;2.93;;;2.00;;
10090;SDS011;5084;51.386;6.778;2022-11-18T04:15:32;3.47;;;2.13;;
10090;SDS011;5084;51.386;6.778;2022-11-18T04:18:01;3.13;;;2.13;;
10090;SDS011;5084;51.386;6.778;2022-11-18T04:20:27;2.80;;;2.33;;
10090;SDS011;5084;51.386;6.778;2022-11-18T04:22:55;3.37;;;2.00;;
10090;SDS011;5084;51.386;6.778;2022-11-18T04:25:21;3.23;;;1.80;;
10090;SDS011;5084;51.386;6.778;2022-11-18T04:27:48;3.20;;;2.10;;
10090;SDS011;5084;51.386;6.778;2022-11-18T04:30:15;6.67;;;2.37;;
10090;SDS011;5084;51.386;6.778;2022-11-18T04:32:41;4.23;;;2.40;;
10090;SDS011;5084;51.386;6.778;2022-11-18T04:35:07;5.00;;;1.83;;
10090;SDS011;5084;51.386;6.778;2022-11-18T04:37:33;1.70;;;1.60;;
10090;SDS011;5084;51.386;6.778;2022-11-18T04:39:59;4.10;;;1.90;;
10090;SDS011;5084;51.386;6.778;2022-11-18T04:42:25;3.33;;;2.30;;
10090;SDS011;5084;51.386;6.778;2022-11-18T04:44:51;3.20;;;2.07;;
10090;SDS011;5084;51.386;6.778;2022-11-18T04:47:17;2.50;;;2.10;;
10090;SDS011;5084;51.386;6.778;2022-11-18T04:49:43;4.60;;;1.97;;
10090;SDS011;5084;51.386;6.778;2022-11-18T04:52:09;2.17;;;1.93;;
10090;SDS011;5084;51.386;6.778;2022-11-18T04:54:36;2.30;;;1.80;;
10090;SDS011;5084;51.386;6.778;2022-11-18T04:57:02;3.07;;;2.10;;
10090;SDS011;5084;51.386;6.778;2022-11-18T04:59:28;3.03;;;2.03;;
10090;SDS011;5084;51.386;6.778;2022-11-18T05:01:55;2.60;;;2.40;;
10090;SDS011;5084;51.386;6.778;2022-11-18T05:04:25;3.13;;;2.83;;
10090;SDS011;5084;51.386;6.778;2022-11-18T05:06:51;3.07;;;1.90;;
10090;SDS011;5084;51.386;6.778;2022-11-18T05:09:17;1.97;;;1.77;;
10090;SDS011;5084;51.386;6.778;2022-11-18T05:11:44;4.07;;;2.27;;
10090;SDS011;5084;51.386;6.778;2022-11-18T05:14:28;2.70;;;1.97;;
10090;SDS011;5084;51.386;6.778;2022-11-18T05:16:55;2.37;;;1.93;;
10090;SDS011;5084;51.386;6.778;2022-11-18T05:19:21;3.53;;;1.97;;
10090;SDS011;5084;51.386;6.778;2022-11-18T05:21:48;3.23;;;2.00;;
10090;SDS011;5084;51.386;6.778;2022-11-18T05:24:14;2.90;;;1.97;;
10090;SDS011;5084;51.386;6.778;2022-11-18T05:26:40;4.90;;;2.13;;
10090;SDS011;5084;51.386;6.778;2022-11-18T05:29:06;4.40;;;2.37;;
10090;SDS011;5084;51.386;6.778;2022-11-18T05:31:32;2.67;;;1.83;;
10090;SDS011;5084;51.386;6.778;2022-11-18T05:33:58;1.97;;;1.73;;
10090;SDS011;5084;51.386;6.778;2022-11-18T05:36:24;4.63;;;2.30;;
10090;SDS011;5084;51.386;6.778;2022-11-18T05:38:50;2.07;;;1.73;;
10090;SDS011;5084;51.386;6.778;2022-11-18T05:41:16;2.27;;;2.07;;
10090;SDS011;5084;51.386;6.778;2022-11-18T05:44:09;2.20;;;1.83;;
10090;SDS011;5084;51.386;6.778;2022-11-18T05:46:35;4.63;;;2.30;;
10090;SDS011;5084;51.386;6.778;2022-11-18T05:49:01;4.70;;;2.00;;
10090;SDS011;5084;51.386;6.778;2022-11-18T05:51:27;5.30;;;2.23;;
10090;SDS011;5084;51.386;6.778;2022-11-18T05:53:53;2.73;;;1.97;;
10090;SDS011;5084;51.386;6.778;2022-11-18T05:56:24;2.93;;;1.87;;
10090;SDS011;5084;51.386;6.778;2022-11-18T05:58:52;1.63;;;1.53;;
10090;SDS011;5084;51.386;6.778;2022-11-18T06:01:19;1.90;;;1.70;;
10090;SDS011;5084;51.386;6.778;2022-11-18T06:03:46;2.17;;;1.77;;
10090;SDS011;5084;51.386;6.778;2022-11-18T06:06:13;2.73;;;1.90;;
10090;SDS011;5084;51.386;6.778;2022-11-18T06:08:45;3.20;;;1.90;;
10090;SDS011;5084;51.386;6.778;2022-11-18T06:11:13;1.87;;;1.73;;
10090;SDS011;5084;51.386;6.778;2022-11-18T06:13:48;4.40;;;1.90;;
10090;SDS011;5084;51.386;6.778;2022-11-18T06:16:19;2.37;;;1.70;;
10090;SDS011;5084;51.386;6.778;2022-11-18T06:18:47;4.50;;;2.40;;
10090;SDS011;5084;51.386;6.778;2022-11-18T06:21:13;2.13;;;1.73;;
10090;SDS011;5084;51.386;6.778;2022-11-18T06:23:39;4.17;;;2.00;;
10090;SDS011;5084;51.386;6.778;2022-11-18T06:26:06;2.60;;;2.20;;
10090;SDS011;5084;51.386;6.778;2022-11-18T06:28:33;3.70;;;2.30;;
10090;SDS011;5084;51.386;6.778;2022-11-18T06:31:00;6.60;;;2.50;;
10090;SDS011;5084;51.386;6.778;2022-11-18T06:33:26;5.65;;;3.70;;
10090;SDS011;5084;51.386;6.778;2022-11-18T06:35:52;4.40;;;2.30;;
10090;SDS011;5084;51.386;6.778;2022-11-18T06:38:24;2.80;;;2.57;;
10090;SDS011;5084;51.386;6.778;2022-11-18T06:40:50;3.63;;;2.20;;
10090;SDS011;5084;51.386;6.778;2022-11-18T06:43:16;3.37;;;2.50;;
10090;SDS011;5084;51.386;6.778;2022-11-18T06:46:02;4.20;;;2.50;;
10090;SDS011;5084;51.386;6.778;2022-11-18T06:48:48;5.37;;;3.00;;
10090;SDS011;5084;51.386;6.778;2022-11-18T06:51:15;4.30;;;2.70;;
10090;SDS011;5084;51.386;6.778;2022-11-18T06:53:47;4.43;;;2.50;;
10090;SDS011;5084;51.386;6.778;2022-11-18T06:56:14;2.40;;;2.20;;
10090;SDS011;5084;51.386;6.778;2022-11-18T06:58:40;3.73;;;2.70;;
10090;SDS011;5084;51.386;6.778;2022-11-18T07:01:17;5.10;;;3.00;;
10090;SDS011;5084;51.386;6.778;2022-11-18T07:03:43;3.33;;;2.13;;
10090;SDS011;5084;51.386;6.778;2022-11-18T07:06:11;4.10;;;2.47;;
10090;SDS011;5084;51.386;6.778;2022-11-18T07:08:38;7.57;;;2.57;;
10090;SDS011;5084;51.386;6.778;2022-11-18T07:11:05;4.03;;;2.50;;
10090;SDS011;5084;51.386;6.778;2022-11-18T07:13:31;3.30;;;2.50;;
10090;SDS011;5084;51.386;6.778;2022-11-18T07:16:11;6.20;;;2.67;;
10090;SDS011;5084;51.386;6.778;2022-11-18T07:18:38;3.33;;;2.30;;
10090;SDS011;5084;51.386;6.778;2022-11-18T07:21:27;4.37;;;2.40;;
10090;SDS011;5084;51.386;6.778;2022-11-18T07:23:52;2.77;;;2.37;;
10090;SDS011;5084;51.386;6.778;2022-11-18T07:26:18;2.73;;;2.53;;
10090;SDS011;5084;51.386;6.778;2022-11-18T07:28:44;3.03;;;2.23;;
10090;SDS011;5084;51.386;6.778;2022-11-18T07:31:14;6.33;;;2.53;;
10090;SDS011;5084;51.386;6.778;2022-11-18T07:33:41;3.77;;;2.23;;
10090;SDS011;5084;51.386;6.778;2022-11-18T07:36:08;2.53;;;2.23;;
10090;SDS011;5084;51.386;6.778;2022-11-18T07:38:35;3.40;;;2.40;;
10090;SDS011;5084;51.386;6.778;2022-11-18T07:41:05;6.27;;;2.93;;
10090;SDS011;5084;51.386;6.778;2022-11-18T07:43:32;4.00;;;2.57;;
10090;SDS011;5084;51.386;6.778;2022-11-18T07:45:58;2.40;;;2.20;;
10090;SDS011;5084;51.386;6.778;2022-11-18T07:48:32;2.77;;;2.20;;
10090;SDS011;5084;51.386;6.778;2022-11-18T07:51:01;3.20;;;2.40;;
10090;SDS011;5084;51.386;6.778;2022-11-18T07:53:31;3.07;;;2.77;;
10090;SDS011;5084;51.386;6.778;2022-11-18T07:55:57;3.43;;;2.40;;
10090;SDS011;5084;51.386;6.778;2022-11-18T07:58:23;3.00;;;2.53;;
10090;SDS011;5084;51.386;6.778;2022-11-18T08:00:49;3.83;;;2.17;;
10090;SDS011;5084;51.386;6.778;2022-11-18T08:03:15;2.80;;;2.17;;
10090;SDS011;5084;51.386;6.778;2022-11-18T08:05:41;2.97;;;2.40;;
10090;SDS011;5084;51.386;6.778;2022-11-18T08:08:07;2.80;;;2.17;;
10090;SDS011;5084;51.386;6.778;2022-11-18T08:10:34;2.37;;;2.17;;
10090;SDS011;5084;51.386;6.778;2022-11-18T08:13:00;3.97;;;2.50;;
10090;SDS011;5084;51.386;6.778;2022-11-18T08:15:26;2.43;;;2.20;;
10090;SDS011;5084;51.386;6.778;2022-11-18T08:17:52;2.53;;;2.10;;
10090;SDS011;5084;51.386;6.778;2022-11-18T08:20:19;4.23;;;2.30;;
10090;SDS011;5084;51.386;6.778;2022-11-18T08:22:45;3.97;;;2.47;;
10090;SDS011;5084;51.386;6.778;2022-11-18T08:25:11;3.13;;;2.10;;
10090;SDS011;5084;51.386;6.778;2022-11-18T08:27:37;2.77;;;2.37;;
10090;SDS011;5084;51.386;6.778;2022-11-18T08:30:03;3.37;;;2.50;;
10090;SDS011;5084;51.386;6.778;2022-11-18T08:32:29;3.80;;;2.00;;
10090;SDS011;5084;51.386;6.778;2022-11-18T08:34:55;3.77;;;2.10;;
10090;SDS011;5084;51.386;6.778;2022-11-18T08:37:21;2.43;;;1.83;;
10090;SDS011;5084;51.386;6.778;2022-11-18T08:39:47;2.67;;;2.10;;
10090;SDS011;5084;51.386;6.778;2022-11-18T08:42:14;3.03;;;2.33;;
10090;SDS011;5084;51.386;6.778;2022-11-18T08:44:40;2.83;;;2.30;;
10090;SDS011;5084;51.386;6.778;2022-11-18T08:47:06;3.23;;;2.27;;
10090;SDS011;5084;51.386;6.778;2022-11-18T08:49:32;2.60;;;2.40;;
10090;SDS011;5084;51.386;6.778;2022-11-18T08:52:04;3.83;;;2.17;;
10090;SDS011;5084;51.386;6.778;2022-11-18T08:54:30;2.57;;;2.20;;
10090;SDS011;5084;51.386;6.778;2022-11-18T08:56:56;2.33;;;2.03;;
10090;SDS011;5084;51.386;6.778;2022-11-18T08:59:22;3.92;;;2.83;;
10090;SDS011;5084;51.386;6.778;2022-11-18T09:01:48;2.93;;;2.20;;
10090;SDS011;5084;51.386;6.778;2022-11-18T09:04:14;4.63;;;2.37;;
10090;SDS011;5084;51.386;6.778;2022-11-18T09:06:40;3.63;;;2.13;;
10090;SDS011;5084;51.386;6.778;2022-11-18T09:09:06;4.60;;;2.60;;
10090;SDS011;5084;51.386;6.778;2022-11-18T09:11:33;4.27;;;2.80;;
10090;SDS011;5084;51.386;6.778;2022-11-18T09:13:59;3.50;;;2.20;;
10090;SDS011;5084;51.386;6.778;2022-11-18T09:16:26;3.03;;;1.70;;
10090;SDS011;5084;51.386;6.778;2022-11-18T09:18:53;2.67;;;2.30;;
10090;SDS011;5084;51.386;6.778;2022-11-18T09:21:19;3.47;;;2.57;;
10090;SDS011;5084;51.386;6.778;2022-11-18T09:23:45;3.90;;;2.50;;
10090;SDS011;5084;51.386;6.778;2022-11-18T09:26:12;4.00;;;2.37;;
10090;SDS011;5084;51.386;6.778;2022-11-18T09:28:39;2.87;;;2.40;;
10090;SDS011;5084;51.386;6.778;2022-11-18T09:31:12;2.77;;;2.53;;
10090;SDS011;5084;51.386;6.778;2022-11-18T09:33:39;2.67;;;2.37;;
10090;SDS011;5084;51.386;6.778;2022-11-18T09:36:10;2.80;;;2.60;;
10090;SDS011;5084;51.386;6.778;2022-11-18T09:38:36;4.70;;;2.37;;
10090;SDS011;5084;51.386;6.778;2022-11-18T09:43:37;4.23;;;2.43;;
10090;SDS011;5084;51.386;6.778;2022-11-18T09:46:19;3.93;;;2.70;;
10090;SDS011;5084;51.386;6.778;2022-11-18T09:48:45;5.43;;;2.60;;
10090;SDS011;5084;51.386;6.778;2022-11-18T09:51:31;4.83;;;2.40;;
10090;SDS011;5084;51.386;6.778;2022-11-18T09:53:59;3.67;;;2.37;;
10090;SDS011;5084;51.386;6.778;2022-11-18T09:56:25;4.03;;;2.40;;
10090;SDS011;5084;51.386;6.778;2022-11-18T09:58:51;3.83;;;2.50;;
10090;SDS011;5084;51.386;6.778;2022-11-18T10:01:18;4.07;;;2.50;;
10090;SDS011;5084;51.386;6.778;2022-11-18T10:03:45;4.20;;;2.50;;
10090;SDS011;5084;51.386;6.778;2022-11-18T10:06:14;3.10;;;2.70;;
10090;SDS011;5084;51.386;6.778;2022-11-18T10:08:56;5.60;;;2.90;;
10090;SDS011;5084;51.386;6.778;2022-11-18T10:11:25;4.10;;;2.90;;
10090;SDS011;5084;51.386;6.778;2022-11-18T10:14:03;3.97;;;2.70;;
10090;SDS011;5084;51.386;6.778;2022-11-18T10:16:34;4.03;;;2.30;;
10090;SDS011;5084;51.386;6.778;2022-11-18T10:21:51;3.37;;;2.63;;
10090;SDS011;5084;51.386;6.778;2022-11-18T10:24:23;2.67;;;2.47;;
10090;SDS011;5084;51.386;6.778;2022-11-18T10:26:53;5.57;;;2.90;;
10090;SDS011;5084;51.386;6.778;2022-11-18T10:29:20;4.03;;;2.57;;
10090;SDS011;5084;51.386;6.778;2022-11-18T10:32:07;3.30;;;2.60;;
10090;SDS011;5084;51.386;6.778;2022-11-18T10:34:45;3.30;;;3.00;;
10090;SDS011;5084;51.386;6.778;2022-11-18T10:37:30;5.83;;;2.87;;
10090;SDS011;5084;51.386;6.778;2022-11-18T10:39:58;3.60;;;2.50;;
10090;SDS011;5084;51.386;6.778;2022-11-18T10:42:26;6.80;;;3.10;;
10090;SDS011;5084;51.386;6.778;2022-11-18T10:44:53;4.03;;;2.60;;
10090;SDS011;5084;51.386;6.778;2022-11-18T10:47:29;2.60;;;2.40;;
10090;SDS011;5084;51.386;6.778;2022-11-18T10:49:57;5.13;;;2.83;;
10090;SDS011;5084;51.386;6.778;2022-11-18T10:52:23;4.60;;;2.73;;
10090;SDS011;5084;51.386;6.778;2022-11-18T10:57:39;5.03;;;2.90;;
10090;SDS011;5084;51.386;6.778;2022-11-18T11:00:52;3.17;;;2.53;;
10090;SDS011;5084;51.386;6.778;2022-11-18T11:02:53;4.77;;;2.83;;
10090;SDS011;5084;51.386;6.778;2022-11-18T11:05:20;3.87;;;2.70;;
10090;SDS011;5084;51.386;6.778;2022-11-18T11:08:03;3.40;;;2.57;;
10090;SDS011;5084;51.386;6.778;2022-11-18T11:10:29;3.37;;;2.83;;
10090;SDS011;5084;51.386;6.778;2022-11-18T11:13:00;6.83;;;2.57;;
10090;SDS011;5084;51.386;6.778;2022-11-18T11:17:55;4.17;;;2.77;;
10090;SDS011;5084;51.386;6.778;2022-11-18T11:20:41;3.10;;;2.33;;
10090;SDS011;5084;51.386;6.778;2022-11-18T11:23:08;4.50;;;2.80;;
10090;SDS011;5084;51.386;6.778;2022-11-18T11:41:16;6.33;;;2.80;;
10090;SDS011;5084;51.386;6.778;2022-11-18T11:48:52;4.37;;;2.70;;
10090;SDS011;5084;51.386;6.778;2022-11-18T11:51:31;4.33;;;2.70;;
10090;SDS011;5084;51.386;6.778;2022-11-18T11:56:29;6.77;;;2.90;;
10090;SDS011;5084;51.386;6.778;2022-11-18T12:04:27;5.03;;;3.30;;
10090;SDS011;5084;51.386;6.778;2022-11-18T12:06:56;2.63;;;2.40;;
10090;SDS011;5084;51.386;6.778;2022-11-18T12:09:25;3.07;;;2.43;;
10090;SDS011;5084;51.386;6.778;2022-11-18T12:11:54;3.23;;;2.57;;
10090;SDS011;5084;51.386;6.778;2022-11-18T12:14:31;3.70;;;2.93;;
10090;SDS011;5084;51.386;6.778;2022-11-18T12:17:04;7.47;;;2.73;;
10090;SDS011;5084;51.386;6.778;2022-11-18T12:19:35;5.57;;;2.93;;
10090;SDS011;5084;51.386;6.778;2022-11-18T12:22:02;5.67;;;2.73;;
10090;SDS011;5084;51.386;6.778;2022-11-18T12:24:36;4.93;;;2.37;;
10090;SDS011;5084;51.386;6.778;2022-11-18T12:32:33;4.53;;;2.40;;
10090;SDS011;5084;51.386;6.778;2022-11-18T12:35:42;5.80;;;2.60;;
10090;SDS011;5084;51.386;6.778;2022-11-18T12:43:01;4.70;;;2.07;;
10090;SDS011;5084;51.386;6.778;2022-11-18T12:53:43;7.23;;;2.87;;
10090;SDS011;5084;51.386;6.778;2022-11-18T12:58:36;3.37;;;2.87;;
10090;SDS011;5084;51.386;6.778;2022-11-18T13:01:03;6.53;;;3.77;;
10090;SDS011;5084;51.386;6.778;2022-11-18T13:03:30;5.87;;;2.83;;
10090;SDS011;5084;51.386;6.778;2022-11-18T13:05:57;5.17;;;2.70;;
10090;SDS011;5084;51.386;6.778;2022-11-18T13:08:25;7.00;;;2.83;;
10090;SDS011;5084;51.386;6.778;2022-11-18T13:10:54;4.47;;;2.80;;
10090;SDS011;5084;51.386;6.778;2022-11-18T13:13:40;5.30;;;3.50;;
10090;SDS011;5084;51.386;6.778;2022-11-18T13:16:16;6.10;;;2.60;;
10090;SDS011;5084;51.386;6.778;2022-11-18T13:19:02;4.53;;;1.97;;
10090;SDS011;5084;51.386;6.778;2022-11-18T13:21:35;3.50;;;2.33;;
10090;SDS011;5084;51.386;6.778;2022-11-18T13:24:26;3.07;;;2.37;;
10090;SDS011;5084;51.386;6.778;2022-11-18T13:26:53;5.73;;;2.63;;
10090;SDS011;5084;51.386;6.778;2022-11-18T13:29:42;4.33;;;2.03;;
10090;SDS011;5084;51.386;6.778;2022-11-18T13:32:22;4.23;;;2.17;;
10090;SDS011;5084;51.386;6.778;2022-11-18T13:34:50;4.20;;;2.53;;
10090;SDS011;5084;51.386;6.778;2022-11-18T13:37:18;3.03;;;2.37;;
10090;SDS011;5084;51.386;6.778;2022-11-18T13:39:45;4.17;;;2.93;;
10090;SDS011;5084;51.386;6.778;2022-11-18T13:42:20;8.80;;;2.40;;
10090;SDS011;5084;51.386;6.778;2022-11-18T13:47:31;8.07;;;2.97;;
10090;SDS011;5084;51.386;6.778;2022-11-18T13:52:39;3.77;;;2.50;;
10090;SDS011;5084;51.386;6.778;2022-11-18T13:55:19;5.20;;;2.50;;
10090;SDS011;5084;51.386;6.778;2022-11-18T13:57:46;4.73;;;2.83;;
10090;SDS011;5084;51.386;6.778;2022-11-18T14:00:19;5.83;;;2.80;;
10090;SDS011;5084;51.386;6.778;2022-11-18T14:02:47;3.93;;;2.50;;
10090;SDS011;5084;51.386;6.778;2022-11-18T14:05:18;5.00;;;2.27;;
10090;SDS011;5084;51.386;6.778;2022-11-18T14:10:31;4.47;;;2.70;;
10090;SDS011;5084;51.386;6.778;2022-11-18T14:12:58;6.87;;;2.53;;
10090;SDS011;5084;51.386;6.778;2022-11-18T14:17:57;4.70;;;2.80;;
10090;SDS011;5084;51.386;6.778;2022-11-18T14:20:24;12.93;;;3.10;;
10090;SDS011;5084;51.386;6.778;2022-11-18T14:22:54;5.60;;;2.50;;
10090;SDS011;5084;51.386;6.778;2022-11-18T14:25:31;4.33;;;2.80;;
10090;SDS011;5084;51.386;6.778;2022-11-18T14:28:12;4.27;;;2.70;;
10090;SDS011;5084;51.386;6.778;2022-11-18T14:30:38;4.97;;;2.40;;
10090;SDS011;5084;51.386;6.778;2022-11-18T14:35:35;7.23;;;3.10;;
10090;SDS011;5084;51.386;6.778;2022-11-18T14:38:04;8.07;;;3.00;;
10090;SDS011;5084;51.386;6.778;2022-11-18T14:40:33;4.93;;;2.70;;
10090;SDS011;5084;51.386;6.778;2022-11-18T14:42:59;7.23;;;2.67;;
10090;SDS011;5084;51.386;6.778;2022-11-18T14:45:26;8.23;;;3.37;;
10090;SDS011;5084;51.386;6.778;2022-11-18T14:47:52;4.73;;;2.70;;
10090;SDS011;5084;51.386;6.778;2022-11-18T14:50:18;3.43;;;2.70;;
10090;SDS011;5084;51.386;6.778;2022-11-18T14:52:44;5.97;;;3.00;;
10090;SDS011;5084;51.386;6.778;2022-11-18T14:55:10;4.30;;;2.80;;
10090;SDS011;5084;51.386;6.778;2022-11-18T14:57:36;7.03;;;3.57;;
10090;SDS011;5084;51.386;6.778;2022-11-18T15:00:04;7.97;;;3.10;;
10090;SDS011;5084;51.386;6.778;2022-11-18T15:02:30;5.17;;;2.97;;
10090;SDS011;5084;51.386;6.778;2022-11-18T15:04:56;7.43;;;3.30;;
10090;SDS011;5084;51.386;6.778;2022-11-18T15:07:22;8.73;;;3.37;;
10090;SDS011;5084;51.386;6.778;2022-11-18T15:09:48;7.63;;;3.70;;
10090;SDS011;5084;51.386;6.778;2022-11-18T15:12:14;4.43;;;2.70;;
10090;SDS011;5084;51.386;6.778;2022-11-18T15:14:40;4.33;;;2.90;;
10090;SDS011;5084;51.386;6.778;2022-11-18T15:17:09;4.03;;;2.50;;
10090;SDS011;5084;51.386;6.778;2022-11-18T15:19:36;8.37;;;2.90;;
10090;SDS011;5084;51.386;6.778;2022-11-18T15:22:04;4.03;;;2.87;;
10090;SDS011;5084;51.386;6.778;2022-11-18T15:24:30;8.60;;;3.47;;
10090;SDS011;5084;51.386;6.778;2022-11-18T15:26:56;4.07;;;2.97;;
10090;SDS011;5084;51.386;6.778;2022-11-18T15:29:23;4.57;;;3.40;;
10090;SDS011;5084;51.386;6.778;2022-11-18T15:31:49;5.53;;;3.60;;
10090;SDS011;5084;51.386;6.778;2022-11-18T15:34:16;5.60;;;3.23;;
10090;SDS011;5084;51.386;6.778;2022-11-18T15:36:43;7.80;;;2.90;;
10090;SDS011;5084;51.386;6.778;2022-11-18T15:39:09;7.90;;;3.47;;
10090;SDS011;5084;51.386;6.778;2022-11-18T15:41:36;4.13;;;3.13;;
10090;SDS011;5084;51.386;6.778;2022-11-18T15:44:02;9.53;;;2.93;;
10090;SDS011;5084;51.386;6.778;2022-11-18T15:46:28;3.97;;;3.10;;
10090;SDS011;5084;51.386;6.778;2022-11-18T15:48:57;4.43;;;3.03;;
10090;SDS011;5084;51.386;6.778;2022-11-18T15:51:23;5.93;;;3.10;;
10090;SDS011;5084;51.386;6.778;2022-11-18T15:53:50;5.07;;;3.20;;
10090;SDS011;5084;51.386;6.778;2022-11-18T15:59:01;3.73;;;2.80;;
10090;SDS011;5084;51.386;6.778;2022-11-18T16:01:29;5.03;;;3.67;;
10090;SDS011;5084;51.386;6.778;2022-11-18T16:03:55;6.37;;;2.87;;
10090;SDS011;5084;51.386;6.778;2022-11-18T16:06:21;3.47;;;2.67;;
10090;SDS011;5084;51.386;6.778;2022-11-18T16:08:47;5.23;;;3.00;;
10090;SDS011;5084;51.386;6.778;2022-11-18T16:11:14;4.97;;;3.50;;
10090;SDS011;5084;51.386;6.778;2022-11-18T16:14:03;3.57;;;3.00;;
10090;SDS011;5084;51.386;6.778;2022-11-18T16:16:29;4.33;;;2.87;;
10090;SDS011;5084;51.386;6.778;2022-11-18T16:18:59;4.03;;;3.03;;
10090;SDS011;5084;51.386;6.778;2022-11-18T16:21:26;5.70;;;3.63;;
10090;SDS011;5084;51.386;6.778;2022-11-18T16:23:53;7.63;;;3.30;;
10090;SDS011;5084;51.386;6.778;2022-11-18T16:26:20;4.47;;;3.40;;
10090;SDS011;5084;51.386;6.778;2022-11-18T16:28:46;7.43;;;4.50;;
10090;SDS011;5084;51.386;6.778;2022-11-18T16:31:12;5.80;;;4.33;;
10090;SDS011;5084;51.386;6.778;2022-11-18T16:33:56;6.33;;;4.93;;
10090;SDS011;5084;51.386;6.778;2022-11-18T16:36:25;8.93;;;5.07;;
10090;SDS011;5084;51.386;6.778;2022-11-18T16:38:52;9.10;;;5.53;;
10090;SDS011;5084;51.386;6.778;2022-11-18T16:41:18;6.80;;;5.87;;
10090;SDS011;5084;51.386;6.778;2022-11-18T16:43:57;7.57;;;5.23;;
10090;SDS011;5084;51.386;6.778;2022-11-18T16:46:24;6.13;;;4.50;;
10090;SDS011;5084;51.386;6.778;2022-11-18T16:48:56;6.13;;;4.47;;
10090;SDS011;5084;51.386;6.778;2022-11-18T16:51:24;7.17;;;4.17;;